createdAt,value
2018-10-12T00:00:19.090Z,63.60
2018-10-12T00:02:47.011Z,63.70
2018-10-12T00:05:14.199Z,63.70
2018-10-12T00:07:42.056Z,63.80
2018-10-12T00:10:10.092Z,63.70
2018-10-12T00:12:37.300Z,63.70
2018-10-12T00:15:04.544Z,63.70
2018-10-12T00:17:31.685Z,64.00
2018-10-12T00:19:58.890Z,64.20
2018-10-12T00:22:26.261Z,64.30
2018-10-12T00:24:53.461Z,64.30
2018-10-12T00:27:20.754Z,64.40
2018-10-12T00:29:48.227Z,64.70
2018-10-12T00:32:15.664Z,64.80
2018-10-12T00:34:42.825Z,64.80
2018-10-12T00:37:10.577Z,64.90
2018-10-12T00:39:37.854Z,65.10
2018-10-12T00:42:05.057Z,65.10
2018-10-12T00:44:32.911Z,65.10
2018-10-12T00:47:00.400Z,65.10
2018-10-12T00:49:27.586Z,65.20
2018-10-12T00:51:55.383Z,65.60
2018-10-12T00:54:22.521Z,65.60
2018-10-12T00:56:49.800Z,65.70
2018-10-12T00:59:17.711Z,65.90
2018-10-12T01:01:44.930Z,66.10
2018-10-12T01:04:12.181Z,66.30
2018-10-12T01:06:40.209Z,66.50
2018-10-12T01:09:08.026Z,66.70
2018-10-12T01:11:36.023Z,66.90
2018-10-12T01:14:03.233Z,67.10
2018-10-12T01:16:30.463Z,67.10
2018-10-12T01:18:57.575Z,67.20
2018-10-12T01:21:24.764Z,67.20
2018-10-12T01:23:51.873Z,67.50
2018-10-12T01:26:19.638Z,67.60
2018-10-12T01:28:49.729Z,67.80
2018-10-12T01:31:16.958Z,67.90
2018-10-12T01:33:44.404Z,68.10
2018-10-12T01:36:11.587Z,68.10
2018-10-12T01:38:39.484Z,68.30
2018-10-12T01:41:06.850Z,68.30
2018-10-12T01:43:34.331Z,68.20
2018-10-12T01:46:01.699Z,68.50
2018-10-12T01:48:28.877Z,68.60
2018-10-12T01:50:56.766Z,68.90
2018-10-12T01:53:23.900Z,69.20
2018-10-12T01:55:56.314Z,69.40
2018-10-12T01:58:23.990Z,69.30
2018-10-12T02:00:51.195Z,69.20
2018-10-12T02:03:18.420Z,69.10
2018-10-12T02:05:45.684Z,69.10
2018-10-12T02:08:12.993Z,69.10
2018-10-12T02:10:40.177Z,69.10
2018-10-12T02:13:08.003Z,69.10
2018-10-12T02:15:35.221Z,69.20
2018-10-12T02:18:02.437Z,69.20
2018-10-12T02:20:29.674Z,69.40
2018-10-12T02:22:56.868Z,69.30
2018-10-12T02:25:24.383Z,69.50
2018-10-12T02:27:51.827Z,69.50
2018-10-12T02:30:19.338Z,69.50
2018-10-12T02:32:46.684Z,69.70
2018-10-12T02:35:13.893Z,69.90
2018-10-12T02:37:41.076Z,70.10
2018-10-12T02:40:08.419Z,70.20
2018-10-12T02:42:35.681Z,70.40
2018-10-12T02:45:02.839Z,70.70
2018-10-12T02:47:30.050Z,70.90
2018-10-12T02:49:57.358Z,70.70
2018-10-12T02:52:24.478Z,71.00
2018-10-12T02:54:51.721Z,71.20
2018-10-12T02:57:18.892Z,71.60
2018-10-12T02:59:46.301Z,71.30
2018-10-12T03:02:13.728Z,71.20
2018-10-12T03:04:40.932Z,71.30
2018-10-12T03:07:08.204Z,71.50
2018-10-12T03:09:35.394Z,71.70
2018-10-12T03:12:02.552Z,71.70
2018-10-12T03:14:29.730Z,71.70
2018-10-12T03:16:57.028Z,71.90
2018-10-12T03:19:24.315Z,72.10
2018-10-12T03:21:51.529Z,72.40
2018-10-12T03:24:18.750Z,72.50
2018-10-12T03:26:45.949Z,72.70
2018-10-12T03:29:13.125Z,72.70
2018-10-12T03:31:40.806Z,73.00
2018-10-12T03:34:08.046Z,73.10
2018-10-12T03:36:35.236Z,73.10
2018-10-12T03:39:04.398Z,73.00
2018-10-12T03:41:31.648Z,72.80
2018-10-12T03:43:58.889Z,73.00
2018-10-12T03:46:26.146Z,73.00
2018-10-12T03:48:53.327Z,73.20
2018-10-12T03:51:21.250Z,73.20
2018-10-12T03:53:48.657Z,73.40
2018-10-12T03:56:15.874Z,73.20
2018-10-12T03:58:43.031Z,73.40
2018-10-12T04:01:10.231Z,73.30
2018-10-12T04:03:39.199Z,73.50
2018-10-12T04:06:06.853Z,73.70
2018-10-12T04:08:35.710Z,73.70
2018-10-12T04:11:04.979Z,73.80
2018-10-12T04:13:33.482Z,73.80
2018-10-12T04:16:03.446Z,73.80
2018-10-12T04:18:31.636Z,74.00
2018-10-12T04:21:00.339Z,74.10
2018-10-12T04:23:28.450Z,74.20
2018-10-12T04:25:56.842Z,74.50
2018-10-12T04:28:24.766Z,74.50
2018-10-12T04:30:54.506Z,74.70
2018-10-12T04:33:22.756Z,74.80
2018-10-12T04:35:52.058Z,75.10
2018-10-12T04:38:21.398Z,75.00
2018-10-12T04:41:01.824Z,75.00
2018-10-12T04:43:31.581Z,75.10
2018-10-12T04:46:01.024Z,75.40
2018-10-12T04:48:29.911Z,75.80
2018-10-12T04:50:59.467Z,75.80
2018-10-12T04:53:28.109Z,75.80
2018-10-12T04:55:56.222Z,76.10
2018-10-12T04:58:24.352Z,76.40
2018-10-12T05:00:53.332Z,76.30
2018-10-12T05:03:21.312Z,76.30
2018-10-12T05:05:50.640Z,76.20
2018-10-12T05:08:18.515Z,75.80
2018-10-12T05:10:46.072Z,75.80
2018-10-12T05:13:13.293Z,75.90
2018-10-12T05:15:41.297Z,75.80
2018-10-12T05:18:09.160Z,75.90
2018-10-12T05:20:36.602Z,75.90
2018-10-12T05:23:04.077Z,75.90
2018-10-12T05:25:31.578Z,75.80
2018-10-12T05:27:58.779Z,75.80
2018-10-12T05:30:26.143Z,75.80
2018-10-12T05:32:53.361Z,76.00
2018-10-12T05:35:20.539Z,75.90
2018-10-12T05:37:48.838Z,75.80
2018-10-12T05:40:16.376Z,75.80
2018-10-12T05:42:43.719Z,75.60
2018-10-12T05:45:11.183Z,75.80
2018-10-12T05:47:38.577Z,75.80
2018-10-12T05:50:07.719Z,75.80
2018-10-12T05:52:35.526Z,75.80
2018-10-12T05:55:02.795Z,75.90
2018-10-12T05:57:30.932Z,76.00
2018-10-12T05:59:58.970Z,76.00
2018-10-12T06:02:26.643Z,75.80
2018-10-12T06:04:54.043Z,75.70
2018-10-12T06:07:21.543Z,75.40
2018-10-12T06:09:49.210Z,75.40
2018-10-12T06:12:16.451Z,75.20
2018-10-12T06:14:43.804Z,75.50
2018-10-12T06:17:11.268Z,75.10
2018-10-12T06:19:38.814Z,75.20
2018-10-12T06:22:06.919Z,75.10
2018-10-12T06:24:35.537Z,74.90
2018-10-12T06:27:02.934Z,74.90
2018-10-12T06:29:31.511Z,74.90
2018-10-12T06:31:59.571Z,74.80
2018-10-12T06:34:26.971Z,74.70
2018-10-12T06:36:55.825Z,74.50
2018-10-12T06:39:23.337Z,74.40
2018-10-12T06:41:50.976Z,74.40
2018-10-12T06:44:18.291Z,74.30
2018-10-12T06:46:45.804Z,74.30
2018-10-12T06:49:12.984Z,74.00
2018-10-12T06:51:40.709Z,74.00
2018-10-12T06:54:08.198Z,72.80
2018-10-12T06:56:35.424Z,70.30
2018-10-12T06:59:02.604Z,68.70
2018-10-12T07:01:30.073Z,68.60
2018-10-12T07:03:57.764Z,68.90
2018-10-12T07:06:24.891Z,69.60
2018-10-12T07:08:51.982Z,69.90
2018-10-12T07:11:19.548Z,70.40
2018-10-12T07:13:47.614Z,70.50
2018-10-12T07:16:15.587Z,70.60
2018-10-12T07:18:42.776Z,70.70
2018-10-12T07:21:10.002Z,70.50
2018-10-12T07:23:37.936Z,70.40
2018-10-12T07:26:05.572Z,70.40
2018-10-12T07:28:32.901Z,70.40
2018-10-12T07:31:00.743Z,70.40
2018-10-12T07:33:28.189Z,70.00
2018-10-12T07:35:55.384Z,70.00
2018-10-12T07:38:22.644Z,69.90
2018-10-12T07:40:49.775Z,69.70
2018-10-12T07:43:17.233Z,69.60
2018-10-12T07:45:44.519Z,69.40
2018-10-12T07:48:11.720Z,69.20
2018-10-12T07:50:39.587Z,68.40
2018-10-12T07:53:06.754Z,68.40
2018-10-12T07:55:34.493Z,68.10
2018-10-12T07:58:01.683Z,67.90
2018-10-12T08:00:29.109Z,67.60
2018-10-12T08:02:56.334Z,67.30
2018-10-12T08:05:23.598Z,66.60
2018-10-12T08:07:50.811Z,66.20
2018-10-12T08:10:20.687Z,65.90
2018-10-12T08:12:49.234Z,65.60
2018-10-12T08:15:18.959Z,65.40
2018-10-12T08:17:55.976Z,64.70
2018-10-12T08:20:23.906Z,64.30
2018-10-12T08:22:53.996Z,64.10
2018-10-12T08:25:22.053Z,63.30
2018-10-12T08:27:49.481Z,62.60
2018-10-12T08:30:17.072Z,62.40
2018-10-12T08:32:46.057Z,62.30
2018-10-12T08:35:14.795Z,62.10
2018-10-12T08:37:42.649Z,61.80
2018-10-12T08:40:10.067Z,61.20
2018-10-12T08:42:37.561Z,61.00
2018-10-12T08:45:05.063Z,60.80
2018-10-12T08:47:32.413Z,60.90
2018-10-12T08:49:59.907Z,59.90
2018-10-12T08:52:27.755Z,59.90
2018-10-12T08:54:55.535Z,59.80
2018-10-12T08:57:23.336Z,59.50
2018-10-12T08:59:51.351Z,59.60
2018-10-12T09:02:18.843Z,60.00
2018-10-12T09:04:46.239Z,59.50
2018-10-12T09:07:14.509Z,59.20
2018-10-12T09:09:41.984Z,59.20
2018-10-12T09:12:09.609Z,58.90
2018-10-12T09:14:36.918Z,58.50
2018-10-12T09:17:06.137Z,58.50
2018-10-12T09:19:33.785Z,58.40
2018-10-12T09:22:01.847Z,58.20
2018-10-12T09:24:29.093Z,58.30
2018-10-12T09:26:56.585Z,58.20
2018-10-12T09:29:24.068Z,58.00
2018-10-12T09:31:52.281Z,57.90
2018-10-12T09:34:19.875Z,57.80
2018-10-12T09:36:47.270Z,57.70
2018-10-12T09:39:14.898Z,57.30
2018-10-12T09:41:43.078Z,57.30
2018-10-12T09:44:10.566Z,57.40
2018-10-12T09:46:37.908Z,56.90
2018-10-12T09:49:05.607Z,56.80
2018-10-12T09:51:33.673Z,56.70
2018-10-12T09:54:02.780Z,56.90
2018-10-12T09:56:31.118Z,56.60
2018-10-12T09:58:58.416Z,56.70
2018-10-12T10:01:31.731Z,56.30
2018-10-12T10:04:04.709Z,56.30
2018-10-12T10:06:32.391Z,56.20
2018-10-12T10:08:59.762Z,55.00
2018-10-12T10:11:27.295Z,55.00
2018-10-12T10:13:54.788Z,54.40
2018-10-12T10:16:22.212Z,54.20
2018-10-12T10:18:49.590Z,54.10
2018-10-12T10:21:17.269Z,53.60
2018-10-12T10:23:44.527Z,53.70
2018-10-12T10:26:11.822Z,53.20
2018-10-12T10:28:39.396Z,53.20
2018-10-12T10:31:06.913Z,53.10
2018-10-12T10:33:34.486Z,53.20
2018-10-12T10:36:01.828Z,52.90
2018-10-12T10:38:29.271Z,52.60
2018-10-12T10:40:56.591Z,52.50
2018-10-12T10:43:24.258Z,52.40
2018-10-12T10:45:51.679Z,52.00
2018-10-12T10:48:19.138Z,52.20
2018-10-12T10:50:46.578Z,52.50
2018-10-12T10:53:14.528Z,52.20
2018-10-12T10:55:42.245Z,52.20
2018-10-12T10:58:09.527Z,51.80
2018-10-12T11:00:37.120Z,51.70
2018-10-12T11:03:04.569Z,51.60
2018-10-12T11:05:32.004Z,51.20
2018-10-12T11:07:59.451Z,51.20
2018-10-12T11:10:26.980Z,50.90
2018-10-12T11:12:54.635Z,50.60
2018-10-12T11:15:21.834Z,50.80
2018-10-12T11:17:49.371Z,50.20
2018-10-12T11:20:16.977Z,51.40
2018-10-12T11:22:45.458Z,50.30
2018-10-12T11:25:13.987Z,51.00
2018-10-12T11:27:41.644Z,50.60
2018-10-12T11:30:09.271Z,51.40
2018-10-12T11:32:36.771Z,50.60
2018-10-12T11:35:04.994Z,49.90
2018-10-12T11:37:33.868Z,50.40
2018-10-12T11:40:01.337Z,49.50
2018-10-12T11:42:41.047Z,49.30
2018-10-12T11:45:08.808Z,49.20
2018-10-12T11:47:37.080Z,48.30
2018-10-12T11:50:05.628Z,48.20
2018-10-12T11:52:33.375Z,48.60
2018-10-12T11:55:01.563Z,48.70
2018-10-12T11:57:29.195Z,48.90
2018-10-12T11:59:56.984Z,49.00
2018-10-12T12:02:25.355Z,49.10
2018-10-12T12:04:52.624Z,49.40
2018-10-12T12:07:20.604Z,49.30
2018-10-12T12:09:48.253Z,49.20
2018-10-12T12:12:15.748Z,49.10
2018-10-12T12:14:43.717Z,49.00
2018-10-12T12:17:11.283Z,49.30
2018-10-12T12:19:44.497Z,48.60
2018-10-12T12:22:13.102Z,48.30
2018-10-12T12:24:43.182Z,48.70
2018-10-12T12:27:11.088Z,48.50
2018-10-12T12:29:38.753Z,48.70
2018-10-12T12:32:06.908Z,48.30
2018-10-12T12:34:34.981Z,48.20
2018-10-12T12:37:03.588Z,48.10
2018-10-12T12:39:32.246Z,48.10
2018-10-12T12:42:00.139Z,48.10
2018-10-12T12:44:28.331Z,48.00
2018-10-12T12:46:56.262Z,47.60
2018-10-12T12:49:24.062Z,47.30
2018-10-12T12:51:51.254Z,47.70
2018-10-12T12:54:18.574Z,46.90
2018-10-12T12:56:46.134Z,47.10
2018-10-12T12:59:14.348Z,47.20
2018-10-12T13:01:41.973Z,46.70
2018-10-12T13:04:10.165Z,46.70
2018-10-12T13:06:37.547Z,46.80
2018-10-12T13:09:06.445Z,46.30
2018-10-12T13:11:34.127Z,45.80
2018-10-12T13:14:01.538Z,45.60
2018-10-12T13:16:29.013Z,45.40
2018-10-12T13:18:56.582Z,46.60
2018-10-12T13:21:23.873Z,45.60
2018-10-12T13:23:51.347Z,46.10
2018-10-12T13:26:19.606Z,46.30
2018-10-12T13:28:49.173Z,45.90
2018-10-12T13:31:21.665Z,45.90
2018-10-12T13:33:52.494Z,45.80
2018-10-12T13:36:21.730Z,45.30
2018-10-12T13:38:50.946Z,45.10
2018-10-12T13:41:21.715Z,45.40
2018-10-12T13:43:49.821Z,45.40
2018-10-12T13:46:17.462Z,45.30
2018-10-12T13:48:44.652Z,45.70
2018-10-12T13:51:13.213Z,45.30
2018-10-12T13:53:40.513Z,46.00
2018-10-12T13:56:07.896Z,45.30
2018-10-12T13:58:35.506Z,45.50
2018-10-12T14:01:03.299Z,46.00
2018-10-12T14:03:31.145Z,45.60
2018-10-12T14:05:58.656Z,45.60
2018-10-12T14:08:26.018Z,45.60
2018-10-12T14:10:53.612Z,45.90
2018-10-12T14:13:20.919Z,45.90
2018-10-12T14:15:48.357Z,45.70
2018-10-12T14:18:15.908Z,45.30
2018-10-12T14:20:43.161Z,46.50
2018-10-12T14:23:10.711Z,45.60
2018-10-12T14:25:37.911Z,46.30
2018-10-12T14:28:05.067Z,46.10
2018-10-12T14:30:32.289Z,46.30
2018-10-12T14:32:59.946Z,46.20
2018-10-12T14:35:27.087Z,46.60
2018-10-12T14:37:54.745Z,46.40
2018-10-12T14:40:22.135Z,46.80
2018-10-12T14:42:49.519Z,46.50
2018-10-12T14:45:16.959Z,46.30
2018-10-12T14:47:44.418Z,46.80
2018-10-12T14:50:11.938Z,46.60
2018-10-12T14:52:39.117Z,46.60
2018-10-12T14:55:06.802Z,47.40
2018-10-12T14:57:34.045Z,47.30
2018-10-12T15:00:01.233Z,47.00
2018-10-12T15:02:28.371Z,47.20
2018-10-12T15:04:55.488Z,46.70
2018-10-12T15:07:22.607Z,46.80
2018-10-12T15:09:49.760Z,46.50
2018-10-12T15:12:17.331Z,46.80
2018-10-12T15:14:56.297Z,46.70
2018-10-12T15:17:23.829Z,46.80
2018-10-12T15:19:51.193Z,47.70
2018-10-12T15:22:18.421Z,47.30
2018-10-12T15:24:46.128Z,47.60
2018-10-12T15:27:13.798Z,47.30
2018-10-12T15:29:41.066Z,47.50
2018-10-12T15:32:08.655Z,47.30
2018-10-12T15:34:36.050Z,47.20
2018-10-12T15:37:03.424Z,47.60
2018-10-12T15:39:30.917Z,47.60
2018-10-12T15:41:58.404Z,47.70
2018-10-12T15:44:25.865Z,47.90
2018-10-12T15:46:53.103Z,48.20
2018-10-12T15:49:20.265Z,48.40
2018-10-12T15:51:47.411Z,48.60
2018-10-12T15:54:14.763Z,49.00
2018-10-12T15:56:42.359Z,49.10
2018-10-12T15:59:09.699Z,49.20
2018-10-12T16:01:37.223Z,49.30
2018-10-12T16:04:04.571Z,49.50
2018-10-12T16:06:32.200Z,49.80
2018-10-12T16:08:59.987Z,50.00
2018-10-12T16:11:27.948Z,49.90
2018-10-12T16:13:56.075Z,49.80
2018-10-12T16:16:23.544Z,50.30
2018-10-12T16:18:51.157Z,50.50
2018-10-12T16:21:18.410Z,50.70
2018-10-12T16:23:47.871Z,51.50
2018-10-12T16:26:17.784Z,51.80
2018-10-12T16:28:45.735Z,52.00
2018-10-12T16:31:13.239Z,52.10
2018-10-12T16:33:40.760Z,52.50
2018-10-12T16:36:08.088Z,52.60
2018-10-12T16:38:35.656Z,52.90
2018-10-12T16:41:02.906Z,53.10
2018-10-12T16:43:30.111Z,53.60
2018-10-12T16:45:57.970Z,53.40
2018-10-12T16:48:25.195Z,53.70
2018-10-12T16:50:52.496Z,53.80
2018-10-12T16:53:20.283Z,53.80
2018-10-12T16:55:47.721Z,53.50
2018-10-12T16:58:15.504Z,54.30
2018-10-12T17:00:43.757Z,54.30
2018-10-12T17:03:11.063Z,54.50
2018-10-12T17:05:38.499Z,54.60
2018-10-12T17:08:05.869Z,54.60
2018-10-12T17:10:33.863Z,54.80
2018-10-12T17:13:01.828Z,55.10
2018-10-12T17:15:30.882Z,55.30
2018-10-12T17:17:58.946Z,55.40
2018-10-12T17:20:26.455Z,55.40
2018-10-12T17:22:53.847Z,56.00
2018-10-12T17:25:21.305Z,55.70
2018-10-12T17:27:49.108Z,55.90
2018-10-12T17:30:17.131Z,56.00
2018-10-12T17:32:45.395Z,56.10
2018-10-12T17:35:13.140Z,56.20
2018-10-12T17:37:41.079Z,56.10
2018-10-12T17:40:09.255Z,56.40
2018-10-12T17:42:36.842Z,56.40
2018-10-12T17:45:05.083Z,56.60
2018-10-12T17:47:32.577Z,56.70
2018-10-12T17:49:59.949Z,56.90
2018-10-12T17:52:27.496Z,57.50
2018-10-12T17:54:55.034Z,57.20
2018-10-12T17:57:24.821Z,57.50
2018-10-12T17:59:52.405Z,57.50
2018-10-12T18:02:19.718Z,57.50
2018-10-12T18:04:47.192Z,57.60
2018-10-12T18:07:14.599Z,57.80
2018-10-12T18:09:42.182Z,57.90
2018-10-12T18:12:09.507Z,58.10
2018-10-12T18:14:37.491Z,58.20
2018-10-12T18:17:05.604Z,58.30
2018-10-12T18:19:33.604Z,58.50
2018-10-12T18:22:00.744Z,58.60
2018-10-12T18:24:28.498Z,58.80
2018-10-12T18:26:55.963Z,58.90
2018-10-12T18:29:23.412Z,59.30
2018-10-12T18:31:50.846Z,59.10
2018-10-12T18:34:18.324Z,59.00
2018-10-12T18:36:46.008Z,59.00
2018-10-12T18:39:14.220Z,59.20
2018-10-12T18:41:41.650Z,59.80
2018-10-12T18:44:10.139Z,59.20
2018-10-12T18:46:37.553Z,59.30
2018-10-12T18:49:05.038Z,59.40
2018-10-12T18:51:33.060Z,59.50
2018-10-12T18:54:00.348Z,59.60
2018-10-12T18:56:27.865Z,59.80
2018-10-12T18:58:55.428Z,59.90
2018-10-12T19:01:22.772Z,59.90
2018-10-12T19:03:50.384Z,60.10
2018-10-12T19:06:18.555Z,60.10
2018-10-12T19:08:46.038Z,60.20
2018-10-12T19:11:13.644Z,60.30
2018-10-12T19:13:41.024Z,60.40
2018-10-12T19:16:08.380Z,60.40
2018-10-12T19:18:35.905Z,60.40
2018-10-12T19:21:03.264Z,60.50
2018-10-12T19:23:34.077Z,60.50
2018-10-12T19:26:03.390Z,60.70
2018-10-12T19:28:31.854Z,60.80
2018-10-12T19:30:59.764Z,60.80
2018-10-12T19:33:27.684Z,60.70
2018-10-12T19:35:55.341Z,61.30
2018-10-12T19:38:22.795Z,61.30
2018-10-12T19:40:50.227Z,61.60
2018-10-12T19:43:17.807Z,61.70
2018-10-12T19:45:45.914Z,61.90
2018-10-12T19:48:16.521Z,62.10
2018-10-12T19:50:45.124Z,62.20
2018-10-12T19:53:13.063Z,62.30
2018-10-12T19:55:41.095Z,62.40
2018-10-12T19:58:09.632Z,62.50
2018-10-12T20:00:37.395Z,62.90
2018-10-12T20:03:04.702Z,62.90
2018-10-12T20:05:32.238Z,62.90
2018-10-12T20:07:59.657Z,63.10
2018-10-12T20:10:28.444Z,63.30
2018-10-12T20:12:56.211Z,63.30
2018-10-12T20:15:23.652Z,63.30
2018-10-12T20:17:51.204Z,63.40
2018-10-12T20:20:18.591Z,63.50
2018-10-12T20:22:47.124Z,63.80
2018-10-12T20:25:15.087Z,63.80
2018-10-12T20:27:42.554Z,63.80
2018-10-12T20:30:09.995Z,63.70
2018-10-12T20:32:37.593Z,63.50
2018-10-12T20:35:04.988Z,63.60
2018-10-12T20:37:32.472Z,63.50
2018-10-12T20:39:59.748Z,63.70
2018-10-12T20:42:27.367Z,63.50
2018-10-12T20:44:54.680Z,63.60
2018-10-12T20:47:22.159Z,63.70
2018-10-12T20:49:49.656Z,63.60
2018-10-12T20:52:17.105Z,63.90
2018-10-12T20:54:45.395Z,64.30
2018-10-12T20:57:12.672Z,64.30
2018-10-12T20:59:40.248Z,64.40
2018-10-12T21:02:07.889Z,64.40
2018-10-12T21:04:35.042Z,64.50
2018-10-12T21:07:03.160Z,64.40
2018-10-12T21:09:30.618Z,64.80
2018-10-12T21:11:58.429Z,64.80
2018-10-12T21:14:25.824Z,64.80
2018-10-12T21:16:53.393Z,65.00
2018-10-12T21:19:20.814Z,65.20
2018-10-12T21:21:48.255Z,65.40
2018-10-12T21:24:15.643Z,65.40
2018-10-12T21:26:45.082Z,65.60
2018-10-12T21:29:13.084Z,66.60
2018-10-12T21:31:40.517Z,66.20
2018-10-12T21:34:08.099Z,66.20
2018-10-12T21:36:35.401Z,66.30
2018-10-12T21:39:03.936Z,66.50
2018-10-12T21:41:31.984Z,66.60
2018-10-12T21:43:59.450Z,66.80
2018-10-12T21:46:26.879Z,66.90
2018-10-12T21:48:53.996Z,67.20
2018-10-12T21:51:21.733Z,67.10
2018-10-12T21:53:49.273Z,67.40
2018-10-12T21:56:17.692Z,67.60
2018-10-12T21:58:45.680Z,67.60
2018-10-12T22:01:13.288Z,67.40
2018-10-12T22:03:40.779Z,67.50
2018-10-12T22:06:08.101Z,67.90
2018-10-12T22:08:41.271Z,67.80
2018-10-12T22:11:08.996Z,68.00
2018-10-12T22:13:36.842Z,68.10
2018-10-12T22:16:04.630Z,68.10
2018-10-12T22:18:32.065Z,68.30
2018-10-12T22:20:59.508Z,68.60
2018-10-12T22:23:26.848Z,68.80
2018-10-12T22:25:54.193Z,68.80
2018-10-12T22:28:21.819Z,68.80
2018-10-12T22:30:48.998Z,68.90
2018-10-12T22:33:17.268Z,68.90
2018-10-12T22:35:45.210Z,69.00
2018-10-12T22:38:12.453Z,69.10
2018-10-12T22:40:39.675Z,69.30
2018-10-12T22:43:06.923Z,69.40
2018-10-12T22:45:34.736Z,69.30
2018-10-12T22:48:02.293Z,69.40
2018-10-12T22:50:29.812Z,69.50
2018-10-12T22:52:57.139Z,69.70
2018-10-12T22:55:24.655Z,69.80
2018-10-12T22:57:57.530Z,69.80
2018-10-12T23:00:25.273Z,69.90
2018-10-12T23:02:52.732Z,69.80
2018-10-12T23:05:20.133Z,70.00
2018-10-12T23:07:48.428Z,70.20
2018-10-12T23:10:16.034Z,70.20
2018-10-12T23:12:43.662Z,70.30
2018-10-12T23:15:10.792Z,70.30
2018-10-12T23:17:38.329Z,70.20
2018-10-12T23:20:05.734Z,70.50
2018-10-12T23:22:39.678Z,70.60
2018-10-12T23:25:13.024Z,70.60
2018-10-12T23:27:46.877Z,70.70
2018-10-12T23:30:20.928Z,70.80
2018-10-12T23:33:05.175Z,70.80
2018-10-12T23:35:38.810Z,70.90
2018-10-12T23:38:12.804Z,70.90
2018-10-12T23:40:46.848Z,71.10
2018-10-12T23:43:20.874Z,71.40
2018-10-12T23:45:54.247Z,71.60
2018-10-12T23:48:27.503Z,71.90
2018-10-12T23:51:00.843Z,72.00
2018-10-12T23:53:34.683Z,72.00
2018-10-12T23:56:08.611Z,71.80
2018-10-12T23:58:42.737Z,72.00
